Allure of the Seas — C6XS8 — position and weather

sailwx.info

Track history (hours):
 
Tides and Currents Weather Stations Pressure Air Temp Water Temp Dewpoint Dewpoint Depression Visibility Wind Speed Wind Dir Waves Ship Positions

Allure of the Seas

Last reported at 2018-May-23 22:32 UTC. Time now 2018-May-24 09:44 UTC.
Position N 20°28' W 087°02'.

Length 362 m; draft 9.3 m.

Type: Passenger vessel. MMSI: 311020700.

Date/timePositionNaut miles runAvg speedWind from/ knotsBaromVisibWave heightAir tempDewpointWater temp
2018-May-23 22:32N 20°28' W 087°02'116.5
2018-May-23 22:29N 20°29' W 087°01'3 4.8
2018-May-23 21:57N 20°29' W 086°59'0 0.0
2018-May-23 21:30N 20°29' W 086°59'0 0.0
2018-May-23 21:00N 20°29' W 086°59'0 0.0
2018-May-23 20:30N 20°29' W 086°59'0 0.0
2018-May-23 19:48N 20°29' W 086°59'0 0.0
2018-May-23 19:30N 20°29' W 086°59'0 0.0
2018-May-23 19:00N 20°29' W 086°59'0 0.0
2018-May-23 18:30N 20°29' W 086°59'0 0.0
2018-May-23 18:00N 20°29' W 086°59'0 0.0
2018-May-23 17:30N 20°29' W 086°59'0 0.0
2018-May-23 17:00N 20°29' W 086°59'0 0.0
2018-May-23 16:30N 20°29' W 086°59'0 0.0
2018-May-23 15:57N 20°29' W 086°59'0 0.0
2018-May-23 15:30N 20°29' W 086°59'0 0.0
2018-May-23 15:00N 20°29' W 086°59'0 0.0
2018-May-23 14:27N 20°29' W 086°59'0 0.0
2018-May-23 14:00N 20°29' W 086°59'0 0.0
2018-May-23 13:30N 20°29' W 086°59'0 0.0
2018-May-23 13:00N 20°29' W 086°59'0 0.0
2018-May-23 12:30N 20°29' W 086°59'0 0.0
2018-May-23 12:00N 20°29' W 086°59'0 0.4
2018-May-23 11:30N 20°29' W 086°59'4 7.2
2018-May-23 11:00N 20°33' W 086°58'612.6
2018-May-23 10:30N 20°38' W 086°55'29217.7
2018-May-22 18:00N 23°24' W 082°36'30416.9 090 / 191017.010.8 27.0 27.0
2018-May-22 00:00N 25°48' W 077°42'83 3.5 110 / 241019.010.8 25.022.028.0
2018-May-21 00:00N 26°06' W 079°12'4616.2 120 / 261017.010.8 25.022.028.0
2018-May-20 21:10N 26°07' W 080°03'210.6
2018-May-20 21:00N 26°06' W 080°05'2 4.9
2018-May-20 20:30N 26°05' W 080°07'0 0.0
2018-May-20 20:00N 26°05' W 080°07'0 0.0
2018-May-20 19:30N 26°05' W 080°07'0 0.0
2018-May-20 19:00N 26°05' W 080°07'0 0.0
2018-May-20 18:30N 26°05' W 080°07'0 0.0
2018-May-20 18:00N 26°05' W 080°07'0 0.0
2018-May-20 17:30N 26°05' W 080°07'0 0.0
2018-May-20 17:00N 26°05' W 080°07'0 0.0
2018-May-20 16:30N 26°05' W 080°07'0 0.0
2018-May-20 16:00N 26°05' W 080°07'0 0.0
2018-May-20 15:30N 26°05' W 080°07'0 0.0
2018-May-20 15:00N 26°05' W 080°07'0 0.0
2018-May-20 14:30N 26°05' W 080°07'0 0.0
2018-May-20 14:00N 26°05' W 080°07'0 0.0
2018-May-20 13:30N 26°05' W 080°07'0 0.0
2018-May-20 13:00N 26°05' W 080°07'0 0.0
2018-May-20 12:30N 26°05' W 080°07'0 0.0
2018-May-20 12:00N 26°05' W 080°07'0 0.0
2018-May-20 11:30N 26°05' W 080°07'0 0.0
2018-May-20 11:00N 26°05' W 080°07'0 0.0
2018-May-20 10:30N 26°05' W 080°07'0 0.0
2018-May-20 10:00N 26°05' W 080°07'1 2.9
2018-May-20 09:30N 26°06' W 080°06'611.6
2018-May-20 09:01N 26°05' W 079°59'612.5
2018-May-20 08:31N 26°02' W 079°53'713.7
2018-May-20 08:00N 25°58' W 079°46'814.0
2018-May-20 07:24N 25°52' W 079°40'614.5
2018-May-20 06:57N 25°46' W 079°39'714.8
2018-May-20 06:29N 25°39' W 079°39'1530.4
2018-May-20 06:00N 25°24' W 079°36'38215.9 160 / 161018.010.8 26.021.528.0
2018-May-19 06:00N 21°06' W 074°30'25910.8 110 / 271016.0 26.021.529.0
2018-May-18 06:00N 19°48' W 070°06'29412.2 110 / 221017.010.8 25.022.028.0
2018-May-17 06:00N 18°30' W 065°06'10913.5 090 / 211018.0 27.022.627.0
2018-May-16 21:55N 18°01' W 063°16'717.7
2018-May-16 21:30N 18°00' W 063°08'5 8.6
2018-May-16 20:56N 18°01' W 063°03'0 0.0
2018-May-16 20:05N 18°01' W 063°03'0 0.0
2018-May-16 19:53N 18°01' W 063°03'0 0.0
2018-May-16 19:23N 18°01' W 063°03'0 0.0
2018-May-16 18:35N 18°01' W 063°03'0 0.0
2018-May-16 18:23N 18°01' W 063°03'0 0.0
2018-May-16 17:56N 18°01' W 063°03'0 0.0
2018-May-16 16:29N 18°01' W 063°03'0 0.0
2018-May-16 15:59N 18°01' W 063°03'0 0.0
2018-May-16 15:29N 18°01' W 063°03'0 0.0
2018-May-16 14:59N 18°01' W 063°03'0 0.0
2018-May-16 12:44N 18°01' W 063°03'0 0.0
2018-May-16 11:34N 18°01' W 063°03'0 1.3
2018-May-16 11:20N 18°00' W 063°03'3 8.4
2018-May-16 10:56N 18°00' W 063°07'614.4
2018-May-16 10:30N 18°03' W 063°13'815.5
2018-May-16 10:00N 18°07' W 063°20'612.8
2018-May-16 09:30N 18°11' W 063°25'713.0
2018-May-16 09:00N 18°15' W 063°30'5217.2
2018-May-16 06:00N 18°54' W 064°06'39616.5 080 / 351016.0 5.4 27.021.027.0
2018-May-15 06:00N 22°12' W 070°12'30717.0 100 / 231017.010.8 26.021.528.0
2018-May-14 12:00N 24°48' W 075°00'11619.4 100 / 221017.010.8 25.020.528.0
2018-May-14 06:00N 25°42' W 076°54'   120 / 201016.0 5.4 27.022.628.0
Track history (hours):
 
Tides and Currents Weather Stations Pressure Air Temp Water Temp Dewpoint Dewpoint Depression Visibility Wind Speed Wind Dir Waves Ship Positions

Allure of the Seas

Last reported at 2018-May-23 22:32 UTC. Time now 2018-May-24 09:44 UTC.
Position N 20°28' W 087°02'.

Length 362 m; draft 9.3 m.

Type: Passenger vessel. MMSI: 311020700.

Date/timePositionNaut miles runAvg speedWind from/ knotsBaromVisibWave heightAir tempDewpointWater temp
2018-May-23 22:32N 20°28' W 087°02'116.5
2018-May-23 22:29N 20°29' W 087°01'3 4.8
2018-May-23 21:57N 20°29' W 086°59'0 0.0
2018-May-23 21:30N 20°29' W 086°59'0 0.0
2018-May-23 21:00N 20°29' W 086°59'0 0.0
2018-May-23 20:30N 20°29' W 086°59'0 0.0
2018-May-23 19:48N 20°29' W 086°59'0 0.0
2018-May-23 19:30N 20°29' W 086°59'0 0.0
2018-May-23 19:00N 20°29' W 086°59'0 0.0
2018-May-23 18:30N 20°29' W 086°59'0 0.0
2018-May-23 18:00N 20°29' W 086°59'0 0.0
2018-May-23 17:30N 20°29' W 086°59'0 0.0
2018-May-23 17:00N 20°29' W 086°59'0 0.0
2018-May-23 16:30N 20°29' W 086°59'0 0.0
2018-May-23 15:57N 20°29' W 086°59'0 0.0
2018-May-23 15:30N 20°29' W 086°59'0 0.0
2018-May-23 15:00N 20°29' W 086°59'0 0.0
2018-May-23 14:27N 20°29' W 086°59'0 0.0
2018-May-23 14:00N 20°29' W 086°59'0 0.0
2018-May-23 13:30N 20°29' W 086°59'0 0.0
2018-May-23 13:00N 20°29' W 086°59'0 0.0
2018-May-23 12:30N 20°29' W 086°59'0 0.0
2018-May-23 12:00N 20°29' W 086°59'0 0.4
2018-May-23 11:30N 20°29' W 086°59'4 7.2
2018-May-23 11:00N 20°33' W 086°58'612.6
2018-May-23 10:30N 20°38' W 086°55'29217.7
2018-May-22 18:00N 23°24' W 082°36'30416.9 090 / 191017.010.8 27.0 27.0
2018-May-22 00:00N 25°48' W 077°42'83 3.5 110 / 241019.010.8 25.022.028.0
2018-May-21 00:00N 26°06' W 079°12'4616.2 120 / 261017.010.8 25.022.028.0
2018-May-20 21:10N 26°07' W 080°03'210.6
2018-May-20 21:00N 26°06' W 080°05'2 4.9
2018-May-20 20:30N 26°05' W 080°07'0 0.0
2018-May-20 20:00N 26°05' W 080°07'0 0.0
2018-May-20 19:30N 26°05' W 080°07'0 0.0
2018-May-20 19:00N 26°05' W 080°07'0 0.0
2018-May-20 18:30N 26°05' W 080°07'0 0.0
2018-May-20 18:00N 26°05' W 080°07'0 0.0
2018-May-20 17:30N 26°05' W 080°07'0 0.0
2018-May-20 17:00N 26°05' W 080°07'0 0.0
2018-May-20 16:30N 26°05' W 080°07'0 0.0
2018-May-20 16:00N 26°05' W 080°07'0 0.0
2018-May-20 15:30N 26°05' W 080°07'0 0.0
2018-May-20 15:00N 26°05' W 080°07'0 0.0
2018-May-20 14:30N 26°05' W 080°07'0 0.0
2018-May-20 14:00N 26°05' W 080°07'0 0.0
2018-May-20 13:30N 26°05' W 080°07'0 0.0
2018-May-20 13:00N 26°05' W 080°07'0 0.0
2018-May-20 12:30N 26°05' W 080°07'0 0.0
2018-May-20 12:00N 26°05' W 080°07'0 0.0
2018-May-20 11:30N 26°05' W 080°07'0 0.0
2018-May-20 11:00N 26°05' W 080°07'0 0.0
2018-May-20 10:30N 26°05' W 080°07'0 0.0
2018-May-20 10:00N 26°05' W 080°07'1 2.9
2018-May-20 09:30N 26°06' W 080°06'611.6
2018-May-20 09:01N 26°05' W 079°59'612.5
2018-May-20 08:31N 26°02' W 079°53'713.7
2018-May-20 08:00N 25°58' W 079°46'814.0
2018-May-20 07:24N 25°52' W 079°40'614.5
2018-May-20 06:57N 25°46' W 079°39'714.8
2018-May-20 06:29N 25°39' W 079°39'1530.4
2018-May-20 06:00N 25°24' W 079°36'38215.9 160 / 161018.010.8 26.021.528.0
2018-May-19 06:00N 21°06' W 074°30'25910.8 110 / 271016.0 26.021.529.0
2018-May-18 06:00N 19°48' W 070°06'29412.2 110 / 221017.010.8 25.022.028.0
2018-May-17 06:00N 18°30' W 065°06'10913.5 090 / 211018.0 27.022.627.0
2018-May-16 21:55N 18°01' W 063°16'717.7
2018-May-16 21:30N 18°00' W 063°08'5 8.6
2018-May-16 20:56N 18°01' W 063°03'0 0.0
2018-May-16 20:05N 18°01' W 063°03'0 0.0
2018-May-16 19:53N 18°01' W 063°03'0 0.0
2018-May-16 19:23N 18°01' W 063°03'0 0.0
2018-May-16 18:35N 18°01' W 063°03'0 0.0
2018-May-16 18:23N 18°01' W 063°03'0 0.0
2018-May-16 17:56N 18°01' W 063°03'0 0.0
2018-May-16 16:29N 18°01' W 063°03'0 0.0
2018-May-16 15:59N 18°01' W 063°03'0 0.0
2018-May-16 15:29N 18°01' W 063°03'0 0.0
2018-May-16 14:59N 18°01' W 063°03'0 0.0
2018-May-16 12:44N 18°01' W 063°03'0 0.0
2018-May-16 11:34N 18°01' W 063°03'0 1.3
2018-May-16 11:20N 18°00' W 063°03'3 8.4
2018-May-16 10:56N 18°00' W 063°07'614.4
2018-May-16 10:30N 18°03' W 063°13'815.5
2018-May-16 10:00N 18°07' W 063°20'612.8
2018-May-16 09:30N 18°11' W 063°25'713.0
2018-May-16 09:00N 18°15' W 063°30'5217.2
2018-May-16 06:00N 18°54' W 064°06'39616.5 080 / 351016.0 5.4 27.021.027.0
2018-May-15 06:00N 22°12' W 070°12'30717.0 100 / 231017.010.8 26.021.528.0
2018-May-14 12:00N 24°48' W 075°00'11619.4 100 / 221017.010.8 25.020.528.0
2018-May-14 06:00N 25°42' W 076°54'   120 / 201016.0 5.4 27.022.628.0

Dump ship's entire track history